createdAt,value
2023-01-28T00:01:17.585Z,109.50
2023-01-28T00:06:15.859Z,105.50
2023-01-28T00:08:43.120Z,94.60
2023-01-28T00:11:12.744Z,98.60
2023-01-28T00:13:39.997Z,92.80
2023-01-28T00:16:11.626Z,89.10
2023-01-28T00:18:39.322Z,106.20
2023-01-28T00:21:15.064Z,99.50
2023-01-28T00:23:47.454Z,94.30
2023-01-28T00:26:15.313Z,94.90
2023-01-28T00:28:44.361Z,101.90
2023-01-28T00:31:24.018Z,94.00
2023-01-28T00:33:51.689Z,98.40
2023-01-28T00:36:19.827Z,91.00
2023-01-28T00:38:53.990Z,94.90
2023-01-28T00:41:23.219Z,101.80
2023-01-28T00:43:52.112Z,94.60
2023-01-28T00:46:20.664Z,98.70
2023-01-28T00:48:49.192Z,88.00
2023-01-28T00:51:18.609Z,83.80
2023-01-28T00:53:45.753Z,86.00
2023-01-28T00:56:18.124Z,90.00
2023-01-28T00:58:45.375Z,85.50
2023-01-28T01:01:15.787Z,87.40
2023-01-28T01:03:43.163Z,90.40
2023-01-28T01:06:11.710Z,86.00
2023-01-28T01:08:43.028Z,85.40
2023-01-28T01:11:12.103Z,91.80
2023-01-28T01:13:39.456Z,86.50
2023-01-28T01:16:07.003Z,91.10
2023-01-28T01:18:35.121Z,86.60
2023-01-28T01:21:03.080Z,87.00
2023-01-28T01:23:31.561Z,85.70
2023-01-28T01:25:59.231Z,88.70
2023-01-28T01:28:26.201Z,87.10
2023-01-28T01:31:03.543Z,89.90
2023-01-28T01:33:31.412Z,86.60
2023-01-28T01:35:59.065Z,92.50
2023-01-28T01:38:28.217Z,86.20
2023-01-28T01:41:00.046Z,86.70
2023-01-28T01:43:48.410Z,85.50
2023-01-28T01:46:38.485Z,87.60
2023-01-28T01:49:17.713Z,85.00
2023-01-28T01:51:48.663Z,82.10
2023-01-28T01:54:18.329Z,87.10
2023-01-28T01:56:49.007Z,81.40
2023-01-28T01:59:24.345Z,83.40
2023-01-28T02:01:52.337Z,84.80
2023-01-28T02:04:35.943Z,81.60
2023-01-28T02:07:03.447Z,84.60
2023-01-28T02:09:34.525Z,75.30
2023-01-28T02:12:28.724Z,74.60
2023-01-28T02:15:00.490Z,72.50
2023-01-28T02:17:27.855Z,68.40
2023-01-28T02:20:04.614Z,72.50
2023-01-28T02:23:05.443Z,75.80
2023-01-28T02:25:54.094Z,78.80
2023-01-28T02:28:27.997Z,76.90
2023-01-28T02:30:59.713Z,71.20
2023-01-28T02:34:00.611Z,67.20
2023-01-28T02:36:36.138Z,74.40
2023-01-28T02:39:11.031Z,74.80
2023-01-28T02:41:54.836Z,72.80
2023-01-28T02:44:22.253Z,75.50
2023-01-28T02:47:07.828Z,67.20
2023-01-28T02:49:35.200Z,65.50
2023-01-28T02:52:14.937Z,70.40
2023-01-28T02:54:48.838Z,76.10
2023-01-28T02:57:27.964Z,70.60
2023-01-28T03:00:07.605Z,72.00
2023-01-28T03:02:45.054Z,69.90
2023-01-28T03:05:20.574Z,71.10
2023-01-28T03:07:49.786Z,70.00
2023-01-28T03:10:21.403Z,68.10
2023-01-28T03:13:12.707Z,69.50
2023-01-28T03:19:10.885Z,63.10
2023-01-28T03:22:07.339Z,70.70
2023-01-28T03:25:06.467Z,66.70
2023-01-28T03:28:24.133Z,67.70
2023-01-28T03:31:22.062Z,68.00
2023-01-28T03:34:11.527Z,64.70
2023-01-28T03:36:48.695Z,59.50
2023-01-28T03:39:37.454Z,55.70
2023-01-28T03:42:12.462Z,60.80
2023-01-28T03:45:04.770Z,50.70
2023-01-28T03:47:32.830Z,53.30
2023-01-28T03:50:01.185Z,55.90
2023-01-28T03:52:32.252Z,49.10
2023-01-28T03:55:24.157Z,49.40
2023-01-28T03:57:51.000Z,46.80
2023-01-28T04:00:20.309Z,44.60
2023-01-28T04:02:47.394Z,49.40
2023-01-28T04:05:20.052Z,43.60
2023-01-28T04:07:51.871Z,42.60
2023-01-28T04:10:41.028Z,48.90
2023-01-28T04:13:27.752Z,48.30
2023-01-28T04:15:54.681Z,46.50
2023-01-28T04:18:27.534Z,44.20
2023-01-28T04:20:56.510Z,42.50
2023-01-28T04:23:23.772Z,45.50
2023-01-28T04:25:51.807Z,44.10
2023-01-28T04:28:19.613Z,41.00
2023-01-28T04:30:46.564Z,46.80
2023-01-28T04:33:32.153Z,44.30
2023-01-28T04:36:03.575Z,42.50
2023-01-28T04:38:43.171Z,39.90
2023-01-28T04:41:33.487Z,42.50
2023-01-28T04:44:06.561Z,39.20
2023-01-28T04:46:56.585Z,43.70
2023-01-28T04:49:44.921Z,43.40
2023-01-28T04:52:14.051Z,41.50
2023-01-28T04:54:54.380Z,38.80
2023-01-28T04:57:21.493Z,41.40
2023-01-28T04:59:48.554Z,42.80
2023-01-28T05:02:16.126Z,42.90
2023-01-28T05:04:44.797Z,36.30
2023-01-28T05:07:22.613Z,36.90
2023-01-28T05:09:49.542Z,34.90
2023-01-28T05:12:16.443Z,36.00
2023-01-28T05:14:44.662Z,37.60
2023-01-28T05:17:16.501Z,36.30
2023-01-28T05:19:44.137Z,37.70
2023-01-28T05:22:17.526Z,33.00
2023-01-28T05:24:50.002Z,34.60
2023-01-28T05:27:16.946Z,33.40
2023-01-28T05:29:44.092Z,32.40
2023-01-28T05:32:11.166Z,36.30
2023-01-28T05:34:38.009Z,32.40
2023-01-28T05:37:10.438Z,31.50
2023-01-28T05:39:38.621Z,34.90
2023-01-28T05:42:05.860Z,35.30
2023-01-28T05:44:34.881Z,33.70
2023-01-28T05:47:20.557Z,31.40
2023-01-28T05:50:06.570Z,35.80
2023-01-28T05:52:43.483Z,32.10
2023-01-28T05:55:20.851Z,31.80
2023-01-28T05:57:49.073Z,34.50
2023-01-28T06:00:18.665Z,36.60
2023-01-28T06:02:45.871Z,34.50
2023-01-28T06:05:15.271Z,33.70
2023-01-28T06:07:45.578Z,32.50
2023-01-28T06:10:12.948Z,34.10
2023-01-28T06:12:40.435Z,35.90
2023-01-28T06:15:33.616Z,36.10
2023-01-28T06:18:20.700Z,39.30
2023-01-28T06:20:52.104Z,48.70
2023-01-28T06:23:19.074Z,48.70
2023-01-28T06:25:46.130Z,44.20
2023-01-28T06:28:15.285Z,40.20
2023-01-28T06:30:42.098Z,50.00
2023-01-28T06:33:08.957Z,41.00
2023-01-28T06:35:36.105Z,38.20
2023-01-28T06:38:04.816Z,40.20
2023-01-28T06:40:31.939Z,43.70
2023-01-28T06:42:58.852Z,40.20
2023-01-28T06:45:26.311Z,33.60
2023-01-28T06:47:53.171Z,37.40
2023-01-28T06:50:20.021Z,34.40
2023-01-28T06:52:47.030Z,35.80
2023-01-28T06:55:14.044Z,39.70
2023-01-28T06:57:41.964Z,38.90
2023-01-28T07:00:11.284Z,41.10
2023-01-28T07:02:38.235Z,41.10
2023-01-28T07:05:05.984Z,56.30
2023-01-28T07:07:34.166Z,77.40
2023-01-28T07:10:01.006Z,57.80
2023-01-28T07:12:28.031Z,59.50
2023-01-28T07:14:54.826Z,70.00
2023-01-28T07:17:21.822Z,68.30
2023-01-28T07:19:48.698Z,67.20
2023-01-28T07:22:15.559Z,59.90
2023-01-28T07:24:42.325Z,54.50
2023-01-28T07:27:09.187Z,51.30
2023-01-28T07:29:36.074Z,47.00
2023-01-28T07:32:07.515Z,49.80
2023-01-28T07:34:34.593Z,46.70
2023-01-28T07:37:01.477Z,52.70
2023-01-28T07:39:28.307Z,50.00
2023-01-28T07:41:55.223Z,70.00
2023-01-28T07:44:35.969Z,76.80
2023-01-28T07:47:03.639Z,68.30
2023-01-28T07:49:30.553Z,56.00
2023-01-28T07:51:57.404Z,61.60
2023-01-28T07:54:24.263Z,52.10
2023-01-28T07:56:51.038Z,41.30
2023-01-28T07:59:17.862Z,39.30
2023-01-28T08:01:44.773Z,38.90
2023-01-28T08:04:11.942Z,42.00
2023-01-28T08:06:38.838Z,43.80
2023-01-28T08:09:08.303Z,42.40
2023-01-28T08:11:38.865Z,38.30
2023-01-28T08:14:06.172Z,38.20
2023-01-28T08:16:33.032Z,38.50
2023-01-28T08:18:59.947Z,35.00
2023-01-28T08:21:26.805Z,39.90
2023-01-28T08:23:54.831Z,42.40
2023-01-28T08:26:21.799Z,42.50
2023-01-28T08:28:51.256Z,41.20
2023-01-28T08:31:18.886Z,52.40
2023-01-28T08:33:47.027Z,53.50
2023-01-28T08:36:14.066Z,44.40
2023-01-28T08:38:40.951Z,47.60
2023-01-28T08:41:07.865Z,44.50
2023-01-28T08:43:34.853Z,42.30
2023-01-28T08:46:01.776Z,36.10
2023-01-28T08:48:28.621Z,40.90
2023-01-28T08:50:59.402Z,40.40
2023-01-28T08:53:26.298Z,41.70
2023-01-28T08:55:55.452Z,40.30
2023-01-28T08:58:23.111Z,33.90
2023-01-28T09:00:50.397Z,33.50
2023-01-28T09:03:18.510Z,34.60
2023-01-28T09:05:45.801Z,36.90
2023-01-28T09:08:14.542Z,29.40
2023-01-28T09:10:42.233Z,31.90
2023-01-28T09:13:12.005Z,37.90
2023-01-28T09:15:39.014Z,31.40
2023-01-28T09:18:06.323Z,35.20
2023-01-28T09:20:33.780Z,40.20
2023-01-28T09:23:01.795Z,44.70
2023-01-28T09:25:28.927Z,49.00
2023-01-28T09:27:55.838Z,50.70
2023-01-28T09:30:22.933Z,43.50
2023-01-28T09:32:51.543Z,45.40
2023-01-28T09:35:19.513Z,45.60
2023-01-28T09:37:47.177Z,40.70
2023-01-28T09:40:18.957Z,39.30
2023-01-28T09:43:10.628Z,37.80
2023-01-28T09:45:47.909Z,42.80
2023-01-28T09:48:17.892Z,39.60
2023-01-28T09:50:49.436Z,35.50
2023-01-28T09:53:22.398Z,37.20
2023-01-28T09:55:56.032Z,35.20
2023-01-28T09:58:23.049Z,35.90
2023-01-28T10:01:19.257Z,36.10
2023-01-28T10:04:25.786Z,35.30
2023-01-28T10:07:36.529Z,33.90
2023-01-28T10:10:27.048Z,35.20
2023-01-28T10:13:01.199Z,34.30
2023-01-28T10:15:47.303Z,37.30
2023-01-28T10:18:18.063Z,33.80
2023-01-28T10:20:50.076Z,37.00
2023-01-28T10:23:25.217Z,38.20
2023-01-28T10:25:53.556Z,36.10
2023-01-28T10:28:30.098Z,35.60
2023-01-28T10:30:57.447Z,33.30
2023-01-28T10:33:40.136Z,31.00
2023-01-28T10:36:08.381Z,27.60
2023-01-28T10:38:36.245Z,29.90
2023-01-28T10:41:07.329Z,28.90
2023-01-28T10:43:39.331Z,30.10
2023-01-28T10:46:19.960Z,28.20
2023-01-28T10:49:18.454Z,25.50
2023-01-28T10:51:45.638Z,26.70
2023-01-28T10:54:30.748Z,26.40
2023-01-28T10:57:08.957Z,27.00
2023-01-28T10:59:37.063Z,29.80
2023-01-28T11:02:20.177Z,28.90
2023-01-28T11:04:47.332Z,33.60
2023-01-28T11:07:20.086Z,33.40
2023-01-28T11:09:53.209Z,29.00
2023-01-28T11:12:23.106Z,35.30
2023-01-28T11:17:33.157Z,27.40
2023-01-28T11:20:10.279Z,28.50
2023-01-28T11:22:41.355Z,30.00
2023-01-28T11:25:23.415Z,32.90
2023-01-28T11:27:53.218Z,27.50
2023-01-28T11:30:35.969Z,25.70
2023-01-28T11:33:17.708Z,28.30
2023-01-28T11:36:13.688Z,26.50
2023-01-28T11:38:55.356Z,30.20
2023-01-28T11:41:31.307Z,23.80
2023-01-28T11:44:00.440Z,22.20
2023-01-28T11:46:55.038Z,25.80
2023-01-28T11:49:47.882Z,29.00
2023-01-28T11:52:55.234Z,22.90
2023-01-28T11:55:38.247Z,27.20
2023-01-28T11:58:27.849Z,23.80
2023-01-28T12:01:04.837Z,22.20
2023-01-28T12:03:59.504Z,23.10
2023-01-28T12:06:44.485Z,20.30
2023-01-28T12:09:25.614Z,24.10
2023-01-28T12:12:22.951Z,27.70
2023-01-28T12:15:02.099Z,25.60
2023-01-28T12:18:01.119Z,25.80
2023-01-28T12:20:40.014Z,22.70
2023-01-28T12:23:29.435Z,21.20
2023-01-28T12:26:08.928Z,33.80
2023-01-28T12:29:02.400Z,31.50
2023-01-28T12:31:32.027Z,22.30
2023-01-28T12:34:13.884Z,23.40
2023-01-28T12:37:05.735Z,24.60
2023-01-28T12:39:48.207Z,22.90
2023-01-28T12:42:37.240Z,18.30
2023-01-28T12:45:24.006Z,18.30
2023-01-28T12:47:56.124Z,18.00
2023-01-28T12:50:32.615Z,16.60
2023-01-28T12:53:17.436Z,22.50
2023-01-28T12:55:48.859Z,25.20
2023-01-28T12:58:33.332Z,26.90
2023-01-28T13:01:08.310Z,39.70
2023-01-28T13:03:53.464Z,25.00
2023-01-28T13:06:33.977Z,34.80
2023-01-28T13:09:11.769Z,25.70
2023-01-28T13:11:39.572Z,34.90
2023-01-28T13:14:07.856Z,32.60
2023-01-28T13:16:37.894Z,22.50
2023-01-28T13:19:37.691Z,22.70
2023-01-28T13:22:27.041Z,35.60
2023-01-28T13:24:54.568Z,34.70
2023-01-28T13:27:27.711Z,40.90
2023-01-28T13:30:22.223Z,48.00
2023-01-28T13:33:06.842Z,38.50
2023-01-28T13:35:37.572Z,28.40
2023-01-28T13:38:18.270Z,19.20
2023-01-28T13:41:01.569Z,20.40
2023-01-28T13:43:29.306Z,21.50
2023-01-28T13:45:59.264Z,20.70
2023-01-28T13:48:42.396Z,20.70
2023-01-28T13:51:30.339Z,21.50
2023-01-28T13:54:08.558Z,24.80
2023-01-28T13:56:43.210Z,26.50
2023-01-28T13:59:27.920Z,25.10
2023-01-28T14:02:17.299Z,26.40
2023-01-28T14:04:48.137Z,28.30
2023-01-28T14:07:56.750Z,32.70
2023-01-28T14:10:33.760Z,30.00
2023-01-28T14:13:43.568Z,31.40
2023-01-28T14:16:21.778Z,31.80
2023-01-28T14:18:52.516Z,32.10
2023-01-28T14:21:22.741Z,30.60
2023-01-28T14:26:40.718Z,37.20
2023-01-28T14:29:56.627Z,37.40
2023-01-28T14:32:29.695Z,34.00
2023-01-28T14:35:02.785Z,37.50
2023-01-28T14:37:33.224Z,37.00
2023-01-28T14:40:14.919Z,36.70
2023-01-28T14:42:48.191Z,41.90
2023-01-28T14:46:04.205Z,38.80
2023-01-28T14:49:03.352Z,43.20
2023-01-28T14:52:09.102Z,38.00
2023-01-28T14:55:24.099Z,41.00
2023-01-28T14:57:59.629Z,36.80
2023-01-28T15:00:34.996Z,43.50
2023-01-28T15:03:25.661Z,41.90
2023-01-28T15:06:05.370Z,40.80
2023-01-28T15:08:36.584Z,43.50
2023-01-28T15:11:10.347Z,36.90
2023-01-28T15:21:14.137Z,38.20
2023-01-28T15:23:43.575Z,36.40
2023-01-28T15:26:19.808Z,35.70
2023-01-28T15:28:48.505Z,41.50
2023-01-28T15:31:49.480Z,47.30
2023-01-28T15:34:19.233Z,50.50
2023-01-28T15:36:49.779Z,41.30
2023-01-28T15:39:23.349Z,35.40
2023-01-28T15:41:55.839Z,34.50
2023-01-28T15:44:33.024Z,28.50
2023-01-28T15:47:02.234Z,34.60
2023-01-28T15:49:34.302Z,34.00
2023-01-28T15:52:01.974Z,31.40
2023-01-28T15:54:30.753Z,34.90
2023-01-28T15:57:08.346Z,35.80
2023-01-28T15:59:35.307Z,32.00
2023-01-28T16:02:23.850Z,34.90
2023-01-28T16:05:01.844Z,37.70
2023-01-28T16:07:33.617Z,31.40
2023-01-28T16:10:03.703Z,31.80
2023-01-28T16:12:30.885Z,33.20
2023-01-28T16:15:02.655Z,38.50
2023-01-28T16:17:34.911Z,38.10
2023-01-28T16:20:06.262Z,35.60
2023-01-28T16:22:39.273Z,35.20
2023-01-28T16:25:21.554Z,34.50
2023-01-28T16:27:48.929Z,32.80
2023-01-28T16:30:17.185Z,34.50
2023-01-28T16:32:45.291Z,33.70
2023-01-28T16:35:28.487Z,28.70
2023-01-28T16:38:00.462Z,31.60
2023-01-28T16:40:32.280Z,31.70
2023-01-28T16:42:59.268Z,32.40
2023-01-28T16:45:26.524Z,30.50
2023-01-28T16:47:53.912Z,31.50
2023-01-28T16:50:23.199Z,32.20
2023-01-28T16:52:53.602Z,33.00
2023-01-28T16:55:22.317Z,35.30
2023-01-28T16:57:53.254Z,35.10
2023-01-28T17:00:25.723Z,38.00
2023-01-28T17:02:54.419Z,30.70
2023-01-28T17:05:22.903Z,26.20
2023-01-28T17:07:50.908Z,31.50
2023-01-28T17:10:18.496Z,37.10
2023-01-28T17:12:48.395Z,42.10
2023-01-28T17:15:15.711Z,19.50
2023-01-28T17:17:43.290Z,24.10
2023-01-28T17:20:11.473Z,32.70
2023-01-28T17:22:38.410Z,49.60
2023-01-28T17:25:06.305Z,65.60
2023-01-28T17:27:33.248Z,70.80
2023-01-28T17:30:00.178Z,54.40
2023-01-28T17:32:27.139Z,24.10
2023-01-28T17:34:54.215Z,19.70
2023-01-28T17:37:21.142Z,25.70
2023-01-28T17:39:48.088Z,20.40
2023-01-28T17:42:17.294Z,23.80
2023-01-28T17:44:44.449Z,20.00
2023-01-28T17:47:12.016Z,18.50
2023-01-28T17:49:39.067Z,18.90
2023-01-28T17:52:06.013Z,17.70
2023-01-28T17:54:34.708Z,20.10
2023-01-28T17:57:01.669Z,21.90
2023-01-28T17:59:28.710Z,23.10
2023-01-28T18:01:55.806Z,27.00
2023-01-28T18:04:22.923Z,27.70
2023-01-28T18:06:52.123Z,30.90
2023-01-28T18:09:19.691Z,32.60
2023-01-28T18:11:47.051Z,38.90
2023-01-28T18:14:14.195Z,31.20
2023-01-28T18:16:41.179Z,35.20
2023-01-28T18:19:10.076Z,25.70
2023-01-28T18:21:52.949Z,24.50
2023-01-28T18:24:22.037Z,29.70
2023-01-28T18:26:49.319Z,34.80
2023-01-28T18:29:20.683Z,37.70
2023-01-28T18:31:49.103Z,39.80
2023-01-28T18:34:17.759Z,34.50
2023-01-28T18:36:46.058Z,30.20
2023-01-28T18:39:14.303Z,25.00
2023-01-28T18:41:41.279Z,25.90
2023-01-28T18:44:10.255Z,34.10
2023-01-28T18:46:37.431Z,35.30
2023-01-28T18:49:05.126Z,39.10
2023-01-28T18:51:32.227Z,29.10
2023-01-28T18:54:00.418Z,12.90
2023-01-28T18:56:29.306Z,8.80
2023-01-28T18:58:58.418Z,7.50
2023-01-28T19:01:25.856Z,13.50
2023-01-28T19:03:54.476Z,9.20
2023-01-28T19:06:24.999Z,9.60
2023-01-28T19:08:54.289Z,12.80
2023-01-28T19:11:23.806Z,16.60
2023-01-28T19:13:51.563Z,26.10
2023-01-28T19:16:20.566Z,25.70
2023-01-28T19:18:55.938Z,22.20
2023-01-28T19:21:24.386Z,29.20
2023-01-28T19:24:03.867Z,31.60
2023-01-28T19:26:32.639Z,35.10
2023-01-28T19:29:00.498Z,26.50
2023-01-28T19:31:28.466Z,21.80
2023-01-28T19:34:01.003Z,22.90
2023-01-28T19:36:30.187Z,12.20
2023-01-28T19:39:01.921Z,9.30
2023-01-28T19:41:29.563Z,12.00
2023-01-28T19:43:57.548Z,14.00
2023-01-28T19:46:25.741Z,13.60
2023-01-28T19:48:52.974Z,14.20
2023-01-28T19:51:20.750Z,12.70
2023-01-28T19:53:51.225Z,14.60
2023-01-28T19:56:19.530Z,13.70
2023-01-28T19:58:46.764Z,14.90
2023-01-28T20:01:18.536Z,13.70
2023-01-28T20:03:46.313Z,19.50
2023-01-28T20:06:16.876Z,20.50
2023-01-28T20:08:44.987Z,18.40
2023-01-28T20:11:15.075Z,14.00
2023-01-28T20:13:44.968Z,18.10
2023-01-28T20:16:19.720Z,16.70
2023-01-28T20:18:52.203Z,17.10
2023-01-28T20:21:20.595Z,19.60
2023-01-28T20:23:52.881Z,17.10
2023-01-28T20:26:24.578Z,16.90
2023-01-28T20:28:52.593Z,15.10
2023-01-28T20:31:21.305Z,18.20
2023-01-28T20:33:48.430Z,17.00
2023-01-28T20:36:15.966Z,18.40
2023-01-28T20:38:45.407Z,17.10
2023-01-28T20:41:20.956Z,18.10
2023-01-28T20:43:49.333Z,18.00
2023-01-28T20:46:22.960Z,17.00
2023-01-28T20:48:50.302Z,18.10
2023-01-28T20:51:20.116Z,20.00
2023-01-28T20:56:17.234Z,20.50
2023-01-28T20:58:44.977Z,14.50
2023-01-28T21:01:23.624Z,15.40
2023-01-28T21:03:51.338Z,15.80
2023-01-28T21:06:19.924Z,18.10
2023-01-28T21:08:51.629Z,16.90
2023-01-28T21:11:19.863Z,13.90
2023-01-28T21:13:47.597Z,17.40
2023-01-28T21:16:17.552Z,19.70
2023-01-28T21:18:45.737Z,20.20
2023-01-28T21:21:35.189Z,18.20
2023-01-28T21:24:02.785Z,14.50
2023-01-28T21:26:29.827Z,15.10
2023-01-28T21:28:57.791Z,12.10
2023-01-28T21:31:26.804Z,11.90
2023-01-28T21:33:59.674Z,12.60
2023-01-28T21:36:27.751Z,13.70
2023-01-28T21:38:57.181Z,11.80
2023-01-28T21:41:24.591Z,15.70
2023-01-28T21:43:55.972Z,13.60
2023-01-28T21:46:26.055Z,12.50
2023-01-28T21:48:57.791Z,14.20
2023-01-28T21:51:46.477Z,13.20
2023-01-28T21:54:18.820Z,11.90
2023-01-28T21:56:47.653Z,11.60
2023-01-28T21:59:28.359Z,15.50
2023-01-28T22:02:07.461Z,14.30
2023-01-28T22:04:40.081Z,16.90
2023-01-28T22:07:10.052Z,17.40
2023-01-28T22:09:37.407Z,12.70
2023-01-28T22:12:09.272Z,14.60
2023-01-28T22:14:38.172Z,15.10
2023-01-28T22:17:11.427Z,15.10
2023-01-28T22:19:39.222Z,14.10
2023-01-28T22:22:07.328Z,15.70
2023-01-28T22:24:34.739Z,15.70
2023-01-28T22:27:02.027Z,14.90
2023-01-28T22:29:29.307Z,15.70
2023-01-28T22:31:56.590Z,15.40
2023-01-28T22:34:24.035Z,18.70
2023-01-28T22:36:52.105Z,20.50
2023-01-28T22:39:20.246Z,18.30
2023-01-28T22:41:48.460Z,16.40
2023-01-28T22:44:16.435Z,16.90
2023-01-28T22:46:43.612Z,16.40
2023-01-28T22:49:12.467Z,18.80
2023-01-28T22:51:39.629Z,14.30
2023-01-28T22:54:06.678Z,17.40
2023-01-28T22:56:33.942Z,17.70
2023-01-28T22:59:03.598Z,18.10
2023-01-28T23:01:31.508Z,18.90
2023-01-28T23:04:00.117Z,19.70
2023-01-28T23:06:28.686Z,16.90
2023-01-28T23:08:56.618Z,19.70
2023-01-28T23:11:28.605Z,18.70
2023-01-28T23:14:23.753Z,17.00
2023-01-28T23:17:10.083Z,24.30
2023-01-28T23:19:56.200Z,20.20
2023-01-28T23:22:50.483Z,19.60
2023-01-28T23:25:18.361Z,19.90
2023-01-28T23:27:45.813Z,22.90
2023-01-28T23:30:13.679Z,21.60
2023-01-28T23:32:47.293Z,18.50
2023-01-28T23:35:14.753Z,18.20
2023-01-28T23:37:41.887Z,18.50
2023-01-28T23:40:09.457Z,19.20
2023-01-28T23:42:36.503Z,18.90
2023-01-28T23:45:06.520Z,18.10
2023-01-28T23:47:33.900Z,18.10
2023-01-28T23:50:00.779Z,19.20
2023-01-28T23:52:27.994Z,15.60
2023-01-28T23:54:55.125Z,15.20
2023-01-28T23:57:22.316Z,15.10
2023-01-28T23:59:49.375Z,17.00
